Time;durP1;ratioP1;P1;durP2;ratioP2;P2;SDS_P1;SDS_P2;PMS_P1;PMS_P2;Temp;Humidity;BMP_temperature;BMP_pressure;BME280_temperature;BME280_humidity;BME280_pressure;Samples;Min_cycle;Max_cycle;Signal;HPM_P1;HPM_P2
2020/12/27 00:00:07;;;;;;;0.55;0.50;;;20.10;44.20;;;;;;5227913;28;20037;-77
2020/12/27 00:02:37;;;;;;;0.57;0.50;;;20.10;44.20;;;;;;5218277;28;20037;-78
2020/12/27 00:05:08;;;;;;;0.43;0.40;;;20.10;44.30;;;;;;5227909;28;20021;-77
2020/12/27 00:07:38;;;;;;;0.47;0.40;;;20.10;44.20;;;;;;5214899;28;20041;-78
2020/12/27 00:10:09;;;;;;;0.70;0.40;;;20.10;44.20;;;;;;5190517;28;20394;-77
2020/12/27 00:12:39;;;;;;;0.60;0.50;;;20.10;44.20;;;;;;5206880;28;20035;-77
2020/12/27 00:15:10;;;;;;;0.82;0.50;;;20.10;44.30;;;;;;5207347;28;20036;-78
2020/12/27 00:17:42;;;;;;;0.50;0.50;;;20.10;44.30;;;;;;5197484;28;20392;-77
2020/12/27 00:20:13;;;;;;;1.08;0.65;;;20.10;44.30;;;;;;5190221;28;20029;-77
2020/12/27 00:22:43;;;;;;;0.60;0.50;;;20.10;44.20;;;;;;5202717;28;20033;-77
2020/12/27 00:25:14;;;;;;;0.40;0.40;;;20.10;44.20;;;;;;5227325;28;20025;-77
2020/12/27 00:27:44;;;;;;;0.65;0.40;;;20.00;44.20;;;;;;5210270;28;20037;-77
2020/12/27 00:30:15;;;;;;;0.93;0.50;;;20.10;44.20;;;;;;5226445;28;20049;-77
2020/12/27 00:32:45;;;;;;;0.50;0.40;;;20.10;44.20;;;;;;5212841;28;20038;-78
2020/12/27 00:35:16;;;;;;;0.40;0.40;;;20.10;44.20;;;;;;5206594;28;20036;-77
2020/12/27 00:37:46;;;;;;;0.52;0.50;;;20.10;44.20;;;;;;5219649;28;20044;-77
2020/12/27 00:40:17;;;;;;;0.70;0.40;;;20.00;44.70;;;;;;5210347;28;20056;-77
2020/12/27 00:42:47;;;;;;;0.65;0.40;;;20.00;44.10;;;;;;5209802;28;20032;-77
2020/12/27 00:45:18;;;;;;;0.40;0.40;;;20.00;44.10;;;;;;5226419;28;20044;-76
2020/12/27 00:47:48;;;;;;;0.73;0.47;;;20.10;44.10;;;;;;5212658;28;20033;-77
2020/12/27 00:50:19;;;;;;;0.45;0.45;;;20.00;44.10;;;;;;5188165;28;20025;-77
2020/12/27 00:52:49;;;;;;;0.95;0.52;;;20.10;44.20;;;;;;5201402;28;20128;-78
2020/12/27 00:55:20;;;;;;;0.40;0.40;;;20.00;44.20;;;;;;5209019;28;20043;-78
2020/12/27 00:57:50;;;;;;;0.63;0.57;;;20.00;44.20;;;;;;5225193;28;20037;-78
2020/12/27 01:00:21;;;;;;;0.45;0.30;;;20.00;44.10;;;;;;5225464;28;20048;-77
2020/12/27 01:02:51;;;;;;;0.80;0.50;;;20.00;44.10;;;;;;5208926;28;20044;-77
2020/12/27 01:05:22;;;;;;;0.80;0.50;;;20.00;44.10;;;;;;5226036;28;20057;-77
2020/12/27 01:07:52;;;;;;;0.30;0.30;;;20.00;44.20;;;;;;5209102;28;20041;-77
2020/12/27 01:10:23;;;;;;;0.35;0.35;;;20.00;44.10;;;;;;5226068;28;20704;-77
2020/12/27 01:12:53;;;;;;;0.35;0.35;;;20.00;44.20;;;;;;5209375;28;20029;-77
2020/12/27 01:15:24;;;;;;;0.47;0.40;;;20.00;44.20;;;;;;5209326;28;20520;-77
2020/12/27 01:17:54;;;;;;;0.47;0.40;;;20.00;44.20;;;;;;5209477;28;20041;-77
2020/12/27 01:20:25;;;;;;;0.40;0.40;;;20.00;44.20;;;;;;5209745;28;20434;-77
2020/12/27 01:22:55;;;;;;;0.30;0.30;;;20.00;44.10;;;;;;5208732;28;20056;-77
2020/12/27 01:25:26;;;;;;;1.25;0.40;;;20.00;44.20;;;;;;5209853;28;20410;-77
2020/12/27 01:27:57;;;;;;;0.30;0.30;;;20.00;44.20;;;;;;5210645;28;20069;-77
2020/12/27 01:30:27;;;;;;;0.40;0.40;;;20.10;44.20;;;;;;5191998;28;20402;-77
2020/12/27 01:32:58;;;;;;;0.40;0.40;;;20.10;44.20;;;;;;5210593;28;20116;-77
2020/12/27 01:35:28;;;;;;;0.45;0.40;;;20.10;44.10;;;;;;5206359;28;20033;-77
2020/12/27 01:37:59;;;;;;;0.38;0.38;;;20.10;44.10;;;;;;5205073;28;20646;-77
2020/12/27 01:40:29;;;;;;;0.55;0.40;;;20.10;44.20;;;;;;5205424;28;20022;-77
2020/12/27 01:43:00;;;;;;;0.63;0.30;;;20.00;44.20;;;;;;5204472;28;20040;-77
2020/12/27 01:45:30;;;;;;;0.55;0.38;;;20.00;44.00;;;;;;5210318;28;20483;-76
2020/12/27 01:48:00;;;;;;;0.30;0.30;;;20.00;44.10;;;;;;5213405;28;20045;-77
2020/12/27 01:50:31;;;;;;;0.47;0.40;;;20.00;44.10;;;;;;5214256;28;20033;-78
2020/12/27 01:53:02;;;;;;;0.30;0.30;;;20.00;44.20;;;;;;5213882;28;20041;-78
2020/12/27 01:55:32;;;;;;;0.90;0.40;;;20.00;44.10;;;;;;5193021;28;20041;-78
2020/12/27 01:58:19;;;;;;;0.47;0.38;;;20.00;44.10;;;;;;5225353;28;20123;-76
2020/12/27 02:00:53;;;;;;;0.50;0.32;;;20.00;44.10;;;;;;5213132;28;20757;-78
2020/12/27 02:03:23;;;;;;;0.40;0.40;;;20.00;44.20;;;;;;5211030;28;20029;-77
2020/12/27 02:05:54;;;;;;;0.55;0.43;;;20.00;44.00;;;;;;5210006;28;20079;-78
2020/12/27 02:08:24;;;;;;;0.30;0.30;;;20.00;44.00;;;;;;5211608;28;20033;-77
2020/12/27 02:10:55;;;;;;;0.30;0.30;;;20.00;44.20;;;;;;5213396;28;20029;-77
2020/12/27 02:13:25;;;;;;;0.30;0.30;;;20.00;44.00;;;;;;5211236;28;20536;-77
2020/12/27 02:15:56;;;;;;;0.60;0.43;;;20.00;44.10;;;;;;5199670;28;20082;-78
2020/12/27 02:18:26;;;;;;;0.50;0.40;;;20.00;44.10;;;;;;5212876;28;20037;-77
2020/12/27 02:20:57;;;;;;;0.40;0.40;;;20.00;44.00;;;;;;5230616;28;20044;-77
2020/12/27 02:23:27;;;;;;;0.30;0.30;;;20.00;44.00;;;;;;5212887;28;20029;-77
2020/12/27 02:25:58;;;;;;;1.00;0.40;;;20.00;44.10;;;;;;5229867;28;20024;-78
2020/12/27 02:28:28;;;;;;;0.50;0.40;;;20.00;44.10;;;;;;5210462;28;20092;-78
2020/12/27 02:30:59;;;;;;;0.50;0.50;;;20.00;44.00;;;;;;5216377;28;20050;-77
2020/12/27 02:33:30;;;;;;;0.40;0.40;;;20.00;44.00;;;;;;5229688;28;20059;-78
2020/12/27 02:36:00;;;;;;;0.40;0.30;;;20.00;44.00;;;;;;5229669;28;20433;-77
2020/12/27 02:38:31;;;;;;;0.30;0.30;;;20.00;44.00;;;;;;5229269;28;20021;-75
2020/12/27 02:41:01;;;;;;;0.47;0.47;;;20.00;43.90;;;;;;5212813;28;20021;-76
2020/12/27 02:43:32;;;;;;;0.40;0.40;;;20.00;43.90;;;;;;5207356;28;20160;-76
2020/12/27 02:46:02;;;;;;;0.40;0.30;;;20.00;44.00;;;;;;5197375;28;20462;-77
2020/12/27 02:48:33;;;;;;;0.40;0.40;;;20.00;43.90;;;;;;5207484;28;20032;-76
2020/12/27 02:51:03;;;;;;;0.50;0.40;;;20.00;44.60;;;;;;5207836;28;20048;-77
2020/12/27 02:53:34;;;;;;;0.40;0.40;;;20.00;44.00;;;;;;5227486;28;20077;-78
2020/12/27 02:56:04;;;;;;;0.30;0.30;;;20.00;44.00;;;;;;5228258;28;20051;-77
2020/12/27 02:58:35;;;;;;;0.82;0.40;;;20.00;43.90;;;;;;5211528;28;20037;-77
2020/12/27 03:01:05;;;;;;;0.30;0.30;;;20.00;43.80;;;;;;5219529;28;20437;-77
2020/12/27 03:03:36;;;;;;;0.40;0.38;;;19.90;43.90;;;;;;5211926;28;20036;-77
2020/12/27 03:06:06;;;;;;;0.30;0.30;;;19.90;43.90;;;;;;5212008;28;20056;-78
2020/12/27 03:08:37;;;;;;;0.40;0.40;;;19.90;43.80;;;;;;5211693;28;20025;-77
2020/12/27 03:11:08;;;;;;;0.30;0.30;;;19.90;43.70;;;;;;5228026;28;20433;-78
2020/12/27 03:13:38;;;;;;;0.52;0.30;;;19.90;43.70;;;;;;5229767;28;20025;-77
2020/12/27 03:16:09;;;;;;;0.30;0.30;;;19.90;43.90;;;;;;5201872;28;20070;-77
2020/12/27 03:18:39;;;;;;;1.05;0.40;;;19.90;43.90;;;;;;5228998;28;20013;-77
2020/12/27 03:21:10;;;;;;;0.20;0.20;;;20.00;44.00;;;;;;5227828;28;20032;-77
2020/12/27 03:23:40;;;;;;;0.30;0.30;;;20.00;43.90;;;;;;5211795;28;20777;-78
2020/12/27 03:26:11;;;;;;;0.25;0.25;;;20.00;43.70;;;;;;5227984;28;20087;-78
2020/12/27 03:28:41;;;;;;;0.50;0.38;;;20.00;43.70;;;;;;5229039;28;20491;-78
2020/12/27 03:31:12;;;;;;;0.73;0.30;;;20.00;43.70;;;;;;5227621;28;20503;-78
2020/12/27 03:33:43;;;;;;;0.52;0.30;;;20.00;43.80;;;;;;5228793;28;20029;-78
2020/12/27 03:36:13;;;;;;;0.30;0.20;;;20.00;43.70;;;;;;5228427;28;20036;-77
2020/12/27 03:38:44;;;;;;;0.22;0.20;;;19.90;43.70;;;;;;5229146;28;20071;-78
2020/12/27 03:41:14;;;;;;;0.38;0.38;;;19.90;43.60;;;;;;5211845;28;20040;-77
2020/12/27 03:43:45;;;;;;;0.55;0.40;;;19.90;43.70;;;;;;5211789;28;20108;-78
2020/12/27 03:46:16;;;;;;;0.40;0.40;;;19.90;43.60;;;;;;5218769;28;20670;-77
2020/12/27 03:48:46;;;;;;;0.55;0.30;;;19.90;43.60;;;;;;5211698;28;20059;-77
2020/12/27 03:51:17;;;;;;;1.30;0.40;;;19.90;43.60;;;;;;5227873;28;20112;-78
2020/12/27 03:53:47;;;;;;;0.30;0.30;;;19.90;43.60;;;;;;5227994;28;20054;-78
2020/12/27 03:56:19;;;;;;;0.57;0.35;;;19.90;43.60;;;;;;5228018;28;20029;-78
2020/12/27 03:58:50;;;;;;;0.40;0.40;;;19.90;43.60;;;;;;5228803;28;20086;-78
2020/12/27 04:01:20;;;;;;;0.25;0.25;;;19.90;43.60;;;;;;5226994;28;20550;-78
2020/12/27 04:03:50;;;;;;;0.30;0.30;;;19.90;43.60;;;;;;5212392;28;20025;-78
2020/12/27 04:06:21;;;;;;;0.63;0.50;;;19.90;43.50;;;;;;5228768;28;20507;-77
2020/12/27 04:08:51;;;;;;;1.38;0.30;;;19.90;43.50;;;;;;5211802;28;20021;-77
2020/12/27 04:11:22;;;;;;;0.65;0.30;;;19.90;43.30;;;;;;5210914;28;20788;-78
2020/12/27 04:13:53;;;;;;;0.30;0.30;;;19.90;43.50;;;;;;5212355;28;20035;-78
2020/12/27 04:16:23;;;;;;;0.30;0.30;;;19.90;43.50;;;;;;5211076;28;20037;-77
2020/12/27 04:18:54;;;;;;;0.30;0.30;;;19.90;43.60;;;;;;5212593;28;20013;-77
2020/12/27 04:21:24;;;;;;;0.32;0.32;;;19.90;43.50;;;;;;5211139;28;20025;-78
2020/12/27 04:23:55;;;;;;;0.30;0.30;;;19.90;43.40;;;;;;5211627;28;20075;-77
2020/12/27 04:26:25;;;;;;;0.70;0.40;;;19.90;43.50;;;;;;5211199;28;20029;-78
2020/12/27 04:28:56;;;;;;;0.40;0.40;;;19.90;43.30;;;;;;5229098;28;20123;-78
2020/12/27 04:31:26;;;;;;;0.55;0.40;;;19.90;43.40;;;;;;5201595;28;20036;-78
2020/12/27 04:33:57;;;;;;;0.30;0.30;;;19.90;43.40;;;;;;5228659;28;20025;-76
2020/12/27 04:36:28;;;;;;;0.35;0.35;;;19.90;43.30;;;;;;5224948;28;20040;-77
2020/12/27 04:38:58;;;;;;;0.40;0.40;;;19.90;43.20;;;;;;5225744;28;20025;-77
2020/12/27 04:41:29;;;;;;;0.85;0.40;;;19.90;43.20;;;;;;5225346;28;20091;-78
2020/12/27 04:43:59;;;;;;;0.63;0.60;;;19.90;43.30;;;;;;5226539;28;20052;-77
2020/12/27 04:46:30;;;;;;;0.30;0.30;;;19.90;43.20;;;;;;5213642;28;20399;-77
2020/12/27 04:49:01;;;;;;;0.40;0.40;;;19.90;43.20;;;;;;5189431;28;20053;-77
2020/12/27 04:51:32;;;;;;;0.30;0.30;;;19.90;43.20;;;;;;5188467;28;20029;-77
2020/12/27 04:54:02;;;;;;;0.40;0.38;;;19.90;43.20;;;;;;5207829;28;20128;-78
2020/12/27 04:56:33;;;;;;;0.30;0.30;;;19.90;43.10;;;;;;5206965;28;20033;-78
2020/12/27 04:59:03;;;;;;;0.50;0.30;;;19.90;43.00;;;;;;5191182;28;20079;-78
2020/12/27 05:01:34;;;;;;;0.70;0.40;;;19.90;43.10;;;;;;5201618;28;20029;-78
2020/12/27 05:04:04;;;;;;;0.60;0.40;;;19.90;43.20;;;;;;5211712;28;20021;-77
2020/12/27 05:06:36;;;;;;;0.30;0.30;;;19.90;43.00;;;;;;5211182;28;20451;-76
2020/12/27 05:09:06;;;;;;;0.30;0.30;;;19.90;43.10;;;;;;5211529;28;20029;-78
2020/12/27 05:11:37;;;;;;;0.30;0.30;;;19.90;43.10;;;;;;5210372;28;20033;-78
2020/12/27 05:14:08;;;;;;;0.52;0.47;;;19.90;43.00;;;;;;5227841;28;20029;-77
2020/12/27 05:16:38;;;;;;;0.88;0.40;;;19.90;42.90;;;;;;5210104;28;20040;-78
2020/12/27 05:19:09;;;;;;;0.30;0.30;;;19.90;42.80;;;;;;5210825;28;20532;-77
2020/12/27 05:21:39;;;;;;;1.33;0.50;;;19.90;43.00;;;;;;5213517;28;20029;-77
2020/12/27 05:24:11;;;;;;;0.68;0.40;;;19.90;42.90;;;;;;5216304;28;20394;-78
2020/12/27 05:26:41;;;;;;;0.40;0.40;;;19.90;42.90;;;;;;5215163;28;20034;-78
2020/12/27 05:29:32;;;;;;;0.30;0.30;;;19.90;42.90;;;;;;5232229;28;20152;-78
2020/12/27 05:32:03;;;;;;;0.85;0.40;;;19.90;42.80;;;;;;5221831;28;20120;-78
2020/12/27 05:34:33;;;;;;;0.68;0.40;;;19.90;42.70;;;;;;5216065;28;20025;-77
2020/12/27 05:37:05;;;;;;;0.98;0.40;;;19.90;42.70;;;;;;5207292;28;20041;-78
2020/12/27 05:39:35;;;;;;;0.90;0.40;;;19.90;42.90;;;;;;5211726;28;20026;-78
2020/12/27 05:42:07;;;;;;;0.68;0.40;;;19.90;42.70;;;;;;5201881;28;20041;-77
2020/12/27 05:44:37;;;;;;;0.38;0.30;;;19.90;42.70;;;;;;5215731;28;20096;-78
2020/12/27 05:47:08;;;;;;;0.50;0.40;;;19.90;42.80;;;;;;5213666;28;20187;-77
2020/12/27 05:49:38;;;;;;;0.30;0.30;;;19.80;42.60;;;;;;5215413;28;20024;-78
2020/12/27 05:52:16;;;;;;;0.50;0.47;;;19.80;43.20;;;;;;5213659;28;20388;-78
2020/12/27 05:54:47;;;;;;;1.00;0.50;;;19.80;42.60;;;;;;5214806;28;20492;-78
2020/12/27 05:57:18;;;;;;;0.32;0.32;;;19.80;42.80;;;;;;5214761;28;20033;-78
2020/12/27 05:59:48;;;;;;;0.40;0.40;;;19.80;42.70;;;;;;5215979;28;20376;-78
2020/12/27 06:02:41;;;;;;;0.28;0.20;;;19.80;42.60;;;;;;5214400;28;20029;-77
2020/12/27 06:05:15;;;;;;;0.40;0.40;;;19.80;42.60;;;;;;5215545;28;20112;-78
2020/12/27 06:07:46;;;;;;;0.60;0.47;;;19.80;42.60;;;;;;5215157;28;20041;-78
2020/12/27 06:10:19;;;;;;;0.82;0.40;;;19.80;42.50;;;;;;5215541;28;20369;-77
2020/12/27 06:13:18;;;;;;;0.60;0.30;;;19.80;42.50;;;;;;5214563;28;20040;-78
2020/12/27 06:15:57;;;;;;;0.43;0.30;;;19.80;42.60;;;;;;5231284;28;20053;-78
2020/12/27 06:18:28;;;;;;;0.40;0.30;;;19.80;42.60;;;;;;5212688;28;20056;-78
2020/12/27 06:21:07;;;;;;;0.35;0.30;;;19.80;42.50;;;;;;5194896;28;20113;-76
2020/12/27 06:23:38;;;;;;;0.65;0.43;;;19.80;42.40;;;;;;5212364;28;20033;-78
2020/12/27 06:26:08;;;;;;;0.40;0.35;;;19.80;42.50;;;;;;5194938;28;20071;-78
2020/12/27 06:28:39;;;;;;;0.77;0.45;;;19.80;42.30;;;;;;5235581;28;20029;-77
2020/12/27 06:31:09;;;;;;;1.15;0.50;;;19.80;42.30;;;;;;5231057;28;20037;-78
2020/12/27 06:33:41;;;;;;;0.30;0.25;;;19.80;42.40;;;;;;5232633;28;20051;-78
2020/12/27 06:36:34;;;;;;;0.47;0.32;;;19.90;42.50;;;;;;5215098;28;20021;-78
2020/12/27 06:39:27;;;;;;;0.30;0.30;;;19.80;42.50;;;;;;5232413;28;20043;-76
2020/12/27 06:42:07;;;;;;;0.75;0.40;;;19.80;42.40;;;;;;5231103;28;20059;-77
2020/12/27 06:44:39;;;;;;;0.47;0.40;;;19.80;42.30;;;;;;5215875;28;20375;-78
2020/12/27 06:47:10;;;;;;;0.40;0.40;;;19.80;42.40;;;;;;5230859;28;20055;-77
2020/12/27 06:49:40;;;;;;;0.73;0.40;;;19.80;42.30;;;;;;5215593;28;20092;-78
2020/12/27 06:52:20;;;;;;;0.50;0.40;;;19.80;42.20;;;;;;5214862;28;20040;-78
2020/12/27 06:54:52;;;;;;;0.40;0.40;;;19.80;42.10;;;;;;5231878;28;20040;-78
2020/12/27 06:57:47;;;;;;;0.35;0.35;;;19.80;42.30;;;;;;5220696;28;20049;-77
2020/12/27 07:00:18;;;;;;;1.35;0.50;;;19.80;42.30;;;;;;5211242;28;20437;-76
2020/12/27 07:02:49;;;;;;;0.52;0.50;;;19.80;42.20;;;;;;5211253;28;20084;-76
2020/12/27 07:05:30;;;;;;;0.30;0.30;;;19.80;42.30;;;;;;5205194;28;20448;-76
2020/12/27 07:08:02;;;;;;;0.47;0.47;;;19.80;42.20;;;;;;5204894;28;20042;-76
2020/12/27 07:10:34;;;;;;;0.45;0.40;;;19.80;42.10;;;;;;5205165;28;20044;-76
2020/12/27 07:13:06;;;;;;;0.70;0.50;;;19.80;42.20;;;;;;5204501;28;20570;-76
2020/12/27 07:15:58;;;;;;;0.45;0.40;;;19.80;42.20;;;;;;5205881;28;20041;-76
2020/12/27 07:18:29;;;;;;;0.40;0.30;;;19.80;42.30;;;;;;5240606;28;20055;-76
2020/12/27 07:20:59;;;;;;;0.35;0.35;;;19.80;42.10;;;;;;5225572;28;20017;-76
2020/12/27 07:23:30;;;;;;;0.82;0.30;;;19.80;42.20;;;;;;5205543;28;20022;-76
2020/12/27 07:26:01;;;;;;;0.85;0.40;;;19.80;42.00;;;;;;5188449;28;20053;-76
2020/12/27 07:28:32;;;;;;;6.85;0.40;;;19.80;42.10;;;;;;5207751;28;20510;-76
2020/12/27 07:31:03;;;;;;;0.57;0.32;;;19.80;42.10;;;;;;5207499;28;20036;-76
2020/12/27 07:33:36;;;;;;;0.57;0.40;;;19.80;41.90;;;;;;5208386;28;20045;-76
2020/12/27 07:36:08;;;;;;;0.90;0.40;;;19.80;42.10;;;;;;5208550;28;20028;-75
2020/12/27 07:39:01;;;;;;;0.30;0.30;;;19.80;42.00;;;;;;5204346;28;20036;-76
2020/12/27 07:41:42;;;;;;;0.50;0.40;;;19.80;42.10;;;;;;5191054;28;20020;-76
2020/12/27 07:44:14;;;;;;;0.50;0.45;;;19.80;42.00;;;;;;5224365;28;20017;-76
2020/12/27 07:46:44;;;;;;;0.73;0.52;;;19.80;42.00;;;;;;5224114;28;20017;-76
2020/12/27 07:49:14;;;;;;;0.63;0.47;;;19.80;42.00;;;;;;5208616;28;20496;-76
2020/12/27 07:51:49;;;;;;;0.50;0.40;;;19.80;42.10;;;;;;5202550;28;20017;-76
2020/12/27 07:54:19;;;;;;;1.08;0.52;;;19.80;41.90;;;;;;5187859;28;20108;-76
2020/12/27 07:56:50;;;;;;;0.50;0.40;;;19.80;42.00;;;;;;5192965;28;20451;-76
2020/12/27 07:59:20;;;;;;;0.50;0.40;;;19.80;41.80;;;;;;5208468;28;20035;-77
2020/12/27 08:01:51;;;;;;;0.43;0.35;;;19.80;42.60;;;;;;5198139;28;20024;-76
2020/12/27 08:04:21;;;;;;;0.40;0.30;;;19.80;41.90;;;;;;5208172;28;20476;-76
2020/12/27 08:06:52;;;;;;;0.70;0.40;;;19.80;42.00;;;;;;5207488;28;20020;-77
2020/12/27 08:09:22;;;;;;;1.08;0.50;;;19.70;41.90;;;;;;5208386;28;20021;-76
2020/12/27 08:11:53;;;;;;;0.30;0.30;;;19.80;41.90;;;;;;5217520;28;20064;-77
2020/12/27 08:14:23;;;;;;;0.30;0.30;;;19.80;42.00;;;;;;5187779;28;20026;-76
2020/12/27 08:16:54;;;;;;;0.30;0.30;;;19.80;42.00;;;;;;5195174;28;20557;-76
2020/12/27 08:19:24;;;;;;;0.45;0.43;;;19.80;42.00;;;;;;5203886;28;20025;-76
2020/12/27 08:21:59;;;;;;;0.55;0.30;;;19.80;42.00;;;;;;5210025;28;20029;-76
2020/12/27 08:24:29;;;;;;;0.40;0.33;;;19.80;41.90;;;;;;5224623;28;20025;-76
2020/12/27 08:27:00;;;;;;;0.32;0.32;;;19.80;42.00;;;;;;5200216;28;20567;-76
2020/12/27 08:29:30;;;;;;;0.40;0.38;;;19.80;41.90;;;;;;5203987;28;20025;-76
2020/12/27 08:32:04;;;;;;;0.40;0.40;;;19.80;41.80;;;;;;5194737;28;20503;-76
2020/12/27 08:34:35;;;;;;;0.60;0.32;;;19.80;41.90;;;;;;5187481;28;20025;-77
2020/12/27 08:37:05;;;;;;;1.88;0.40;;;19.80;41.90;;;;;;5211194;28;20154;-76
2020/12/27 08:39:38;;;;;;;0.40;0.30;;;19.80;41.90;;;;;;5224603;28;20025;-77
2020/12/27 08:42:17;;;;;;;0.40;0.30;;;19.80;42.00;;;;;;5198479;28;20549;-77
2020/12/27 08:45:12;;;;;;;0.88;0.40;;;19.70;41.70;;;;;;5203816;28;20495;-76
2020/12/27 08:47:46;;;;;;;0.70;0.30;;;19.80;42.00;;;;;;5199665;28;20032;-77
2020/12/27 08:50:19;;;;;;;0.60;0.35;;;19.70;41.80;;;;;;5225372;28;20032;-76
2020/12/27 08:52:55;;;;;;;0.45;0.40;;;19.70;41.80;;;;;;5223260;28;20029;-76
2020/12/27 08:55:30;;;;;;;1.00;0.50;;;19.80;42.00;;;;;;5223811;28;20035;-76
2020/12/27 08:58:01;;;;;;;0.50;0.43;;;19.80;41.90;;;;;;5207061;28;20037;-76
2020/12/27 09:00:32;;;;;;;0.57;0.43;;;19.70;41.90;;;;;;5223576;28;20495;-76
2020/12/27 09:03:06;;;;;;;0.43;0.40;;;19.70;41.90;;;;;;5206534;28;20031;-76
2020/12/27 09:05:36;;;;;;;0.30;0.30;;;19.70;42.00;;;;;;5207350;28;20112;-76
2020/12/27 09:08:14;;;;;;;0.30;0.30;;;19.70;42.00;;;;;;5206887;28;20052;-76
2020/12/27 09:10:45;;;;;;;0.38;0.30;;;19.70;41.90;;;;;;5186856;28;20025;-76
2020/12/27 09:13:15;;;;;;;0.47;0.40;;;19.70;41.80;;;;;;5220160;28;20033;-76
2020/12/27 09:15:49;;;;;;;0.55;0.50;;;19.70;41.90;;;;;;5217499;28;20036;-76
2020/12/27 09:18:30;;;;;;;0.60;0.40;;;19.70;42.00;;;;;;5220862;28;20630;-77
2020/12/27 09:21:03;;;;;;;0.40;0.40;;;19.70;41.80;;;;;;5223492;28;20119;-76
2020/12/27 09:23:33;;;;;;;0.65;0.40;;;19.70;41.90;;;;;;5203259;28;20416;-76
2020/12/27 09:26:08;;;;;;;0.57;0.40;;;19.70;41.80;;;;;;5202955;28;20033;-77
2020/12/27 09:28:39;;;;;;;0.50;0.40;;;19.70;41.90;;;;;;5202860;28;20037;-76
2020/12/27 09:31:12;;;;;;;0.30;0.30;;;19.70;42.00;;;;;;5194306;28;20040;-76
2020/12/27 09:33:47;;;;;;;0.30;0.30;;;19.70;41.90;;;;;;5223682;28;20036;-76
2020/12/27 09:36:17;;;;;;;0.50;0.40;;;19.70;41.90;;;;;;5223278;28;20032;-76
2020/12/27 09:38:48;;;;;;;0.60;0.45;;;19.80;41.80;;;;;;5207101;28;20021;-76
2020/12/27 09:41:20;;;;;;;0.40;0.40;;;19.70;41.80;;;;;;5222755;28;20488;-76
2020/12/27 09:43:54;;;;;;;0.30;0.30;;;19.70;41.90;;;;;;5223703;28;20534;-76
2020/12/27 09:46:45;;;;;;;0.43;0.40;;;19.70;41.80;;;;;;5197077;28;20091;-76
2020/12/27 09:49:24;;;;;;;0.32;0.30;;;19.70;41.80;;;;;;5223501;28;20771;-76
2020/12/27 09:52:12;;;;;;;0.30;0.30;;;19.70;42.00;;;;;;5223622;28;20078;-75
2020/12/27 09:54:43;;;;;;;0.68;0.30;;;19.70;41.90;;;;;;5223033;28;20450;-75
2020/12/27 09:57:15;;;;;;;0.60;0.45;;;19.70;41.90;;;;;;5213415;28;20041;-75
2020/12/27 09:59:46;;;;;;;0.30;0.30;;;19.70;41.90;;;;;;5186210;28;20061;-76
2020/12/27 10:02:17;;;;;;;0.25;0.25;;;19.70;41.90;;;;;;5201204;28;20132;-76
2020/12/27 10:04:48;;;;;;;0.40;0.30;;;19.70;41.80;;;;;;5202609;28;20112;-76
2020/12/27 10:07:18;;;;;;;0.47;0.40;;;19.70;41.90;;;;;;5205006;28;20155;-76
2020/12/27 10:09:49;;;;;;;0.52;0.40;;;19.70;42.50;;;;;;5206779;28;20404;-76
2020/12/27 10:12:20;;;;;;;0.35;0.32;;;19.70;42.00;;;;;;5205485;28;20033;-76
2020/12/27 10:14:50;;;;;;;0.40;0.38;;;19.70;41.70;;;;;;5206676;28;20026;-76
2020/12/27 10:17:21;;;;;;;0.43;0.40;;;19.70;41.80;;;;;;5205346;28;20037;-76
2020/12/27 10:19:51;;;;;;;0.55;0.40;;;19.70;41.80;;;;;;5206375;28;20022;-76
2020/12/27 10:22:22;;;;;;;0.60;0.30;;;19.70;41.80;;;;;;5205123;28;20037;-77
2020/12/27 10:24:52;;;;;;;0.38;0.32;;;19.70;41.70;;;;;;5206291;28;20029;-77
2020/12/27 10:27:24;;;;;;;0.60;0.30;;;19.70;41.70;;;;;;5205761;28;20037;-76
2020/12/27 10:29:55;;;;;;;0.40;0.40;;;19.70;41.60;;;;;;5206588;28;20032;-76
2020/12/27 10:32:25;;;;;;;0.35;0.35;;;19.70;41.70;;;;;;5204686;28;20037;-76
2020/12/27 10:34:56;;;;;;;0.32;0.32;;;19.70;41.80;;;;;;5205978;28;20022;-76
2020/12/27 10:37:26;;;;;;;0.40;0.30;;;19.70;41.80;;;;;;5205484;28;20048;-77
2020/12/27 10:39:57;;;;;;;1.20;0.40;;;19.70;41.60;;;;;;5206229;28;20030;-77
2020/12/27 10:42:27;;;;;;;0.43;0.40;;;19.70;41.80;;;;;;5221509;28;20030;-76
2020/12/27 10:44:58;;;;;;;1.05;0.40;;;19.70;41.70;;;;;;5189550;28;20060;-76
2020/12/27 10:47:28;;;;;;;0.60;0.35;;;19.70;41.60;;;;;;5204452;28;20582;-76
2020/12/27 10:49:59;;;;;;;1.55;0.40;;;19.70;41.70;;;;;;5205962;28;20067;-77
2020/12/27 10:52:29;;;;;;;0.35;0.35;;;19.70;41.60;;;;;;5188350;28;20534;-76
2020/12/27 10:55:00;;;;;;;0.22;0.22;;;19.70;41.50;;;;;;5222421;28;20034;-76
2020/12/27 10:57:30;;;;;;;0.20;0.20;;;19.60;41.70;;;;;;5204959;28;20033;-76
2020/12/27 11:00:01;;;;;;;0.40;0.40;;;19.70;41.70;;;;;;5205681;28;20025;-76
2020/12/27 11:02:31;;;;;;;0.60;0.32;;;19.70;41.60;;;;;;5204213;28;20117;-76
2020/12/27 11:05:01;;;;;;;0.75;0.38;;;19.60;41.50;;;;;;5205699;28;20488;-76
2020/12/27 11:07:32;;;;;;;0.52;0.32;;;19.60;41.60;;;;;;5205072;28;20033;-76
2020/12/27 11:10:03;;;;;;;0.30;0.30;;;19.70;41.70;;;;;;5205722;28;20553;-76
2020/12/27 11:12:33;;;;;;;0.40;0.40;;;19.70;41.60;;;;;;5204353;28;20041;-76
2020/12/27 11:15:04;;;;;;;0.30;0.30;;;19.70;41.60;;;;;;5205067;28;20040;-76
2020/12/27 11:17:34;;;;;;;0.50;0.40;;;19.70;41.60;;;;;;5208693;28;20040;-76
2020/12/27 11:20:05;;;;;;;0.52;0.30;;;19.70;41.70;;;;;;5209273;28;20468;-76
2020/12/27 11:22:38;;;;;;;0.30;0.30;;;19.70;41.60;;;;;;5225101;28;20075;-76
2020/12/27 11:25:09;;;;;;;0.30;0.30;;;19.70;41.60;;;;;;5209903;28;20479;-75
2020/12/27 11:27:39;;;;;;;0.77;0.38;;;19.70;41.40;;;;;;5208480;28;20043;-76
2020/12/27 11:30:10;;;;;;;0.30;0.30;;;19.70;41.50;;;;;;5225220;28;20021;-76
2020/12/27 11:32:40;;;;;;;0.77;0.40;;;19.70;41.60;;;;;;5208203;28;20025;-76
2020/12/27 11:35:11;;;;;;;0.30;0.30;;;19.70;41.60;;;;;;5225555;28;20074;-76
2020/12/27 11:37:42;;;;;;;0.63;0.40;;;19.60;41.50;;;;;;5208146;28;20039;-76
2020/12/27 11:40:12;;;;;;;0.85;0.40;;;19.70;41.60;;;;;;5209071;28;20166;-76
2020/12/27 11:42:43;;;;;;;0.40;0.30;;;19.70;41.60;;;;;;5224676;28;20032;-76
2020/12/27 11:45:13;;;;;;;0.45;0.35;;;19.70;41.60;;;;;;5224935;28;20111;-76
2020/12/27 11:47:44;;;;;;;0.52;0.50;;;19.70;41.60;;;;;;5211618;28;20034;-76
2020/12/27 11:50:14;;;;;;;0.50;0.50;;;19.70;41.40;;;;;;5188184;28;20521;-76
2020/12/27 11:52:45;;;;;;;0.47;0.30;;;19.70;41.60;;;;;;5200906;28;20033;-76
2020/12/27 11:55:15;;;;;;;0.52;0.40;;;19.70;41.50;;;;;;5208303;28;20060;-75
2020/12/27 11:57:47;;;;;;;0.45;0.30;;;19.60;41.60;;;;;;5224442;28;20036;-76
2020/12/27 12:00:18;;;;;;;0.50;0.50;;;19.70;41.50;;;;;;5208070;28;20107;-76
2020/12/27 12:02:49;;;;;;;0.40;0.35;;;19.70;41.60;;;;;;5193635;28;20026;-76
2020/12/27 12:05:19;;;;;;;0.25;0.20;;;19.60;41.50;;;;;;5204315;28;20508;-76
2020/12/27 12:07:51;;;;;;;0.30;0.30;;;19.60;41.40;;;;;;5217930;28;20029;-76
2020/12/27 12:10:22;;;;;;;0.57;0.45;;;19.60;41.40;;;;;;5208194;28;20399;-76
2020/12/27 12:12:52;;;;;;;0.40;0.40;;;19.60;41.50;;;;;;5193044;28;20037;-77
2020/12/27 12:15:23;;;;;;;1.35;0.32;;;19.60;41.50;;;;;;5206070;28;20067;-76
2020/12/27 12:17:53;;;;;;;0.30;0.30;;;19.60;41.50;;;;;;5224024;28;20108;-76
2020/12/27 12:20:42;;;;;;;0.30;0.30;;;19.70;41.60;;;;;;5224657;28;20032;-76
2020/12/27 12:23:16;;;;;;;0.50;0.40;;;19.70;41.50;;;;;;5209628;28;20487;-76
2020/12/27 12:25:47;;;;;;;0.75;0.47;;;19.70;41.50;;;;;;5224770;28;20071;-76
2020/12/27 12:28:17;;;;;;;0.57;0.30;;;19.60;41.40;;;;;;5206146;28;20045;-76
2020/12/27 12:30:48;;;;;;;0.40;0.40;;;19.60;41.40;;;;;;5209204;28;20029;-76
2020/12/27 12:33:18;;;;;;;0.47;0.30;;;19.70;41.40;;;;;;5205725;28;20036;-76
2020/12/27 12:35:49;;;;;;;0.47;0.25;;;19.70;41.50;;;;;;5203595;28;20036;-77
2020/12/27 12:38:19;;;;;;;0.45;0.40;;;19.70;41.40;;;;;;5203082;28;20388;-76
2020/12/27 12:40:50;;;;;;;0.40;0.40;;;19.70;41.50;;;;;;5203649;28;20030;-76
2020/12/27 12:43:20;;;;;;;0.60;0.40;;;19.70;41.40;;;;;;5202853;28;20061;-76
2020/12/27 12:45:51;;;;;;;0.57;0.40;;;19.70;41.50;;;;;;5209693;28;20021;-76
2020/12/27 12:48:21;;;;;;;0.40;0.30;;;19.70;41.50;;;;;;5223499;28;20040;-76
2020/12/27 12:50:52;;;;;;;0.38;0.38;;;19.60;41.50;;;;;;5207511;28;20029;-76
2020/12/27 12:53:22;;;;;;;0.50;0.32;;;19.60;41.50;;;;;;5204859;28;20030;-76
2020/12/27 12:55:53;;;;;;;0.30;0.30;;;19.60;41.40;;;;;;5203409;28;20062;-76
2020/12/27 12:58:23;;;;;;;0.38;0.30;;;19.60;41.50;;;;;;5221596;28;20542;-76
2020/12/27 13:00:54;;;;;;;0.40;0.40;;;19.60;41.50;;;;;;5223132;28;20543;-76
2020/12/27 13:03:24;;;;;;;0.60;0.50;;;19.60;41.70;;;;;;5204510;28;20377;-76
2020/12/27 13:05:55;;;;;;;0.30;0.30;;;19.70;41.60;;;;;;5186873;28;20021;-76
2020/12/27 13:08:25;;;;;;;0.50;0.35;;;19.60;41.50;;;;;;5221898;28;20392;-76
2020/12/27 13:10:56;;;;;;;0.57;0.38;;;19.60;41.70;;;;;;5206822;28;20033;-76